Home > Products > Valid Products > TAF

000
FTUS46 KSGX 232000 AAA
TAFSAN
TAF AMD
KSAN 232043Z 2321/2424 30011KT P6SM FEW200
     FM240300 VRB05KT P6SM FEW010
     FM241200 VRB03KT P6SM SCT008
     FM241600 VRB04KT P6SM FEW010
     FM241900 29009KT P6SM SKC=



000
FTUS46 KSGX 231700
TAFTRM
TAF
KTRM 231732Z 2318/2418 VRB05KT P6SM FEW200
     FM240200 32013KT P6SM FEW200
     FM241200 VRB05KT P6SM SKC=



000
FTUS46 KSGX 231700
TAFSNA
TAF
KSNA 231732Z 2318/2418 VRB05KT P6SM FEW200
     FM231900 24009KT P6SM SKC
     FM240200 VRB03KT P6SM FEW010=



000
FTUS46 KSGX 231700
TAFSAN
TAF
KSAN 231732Z 2318/2424 30011KT P6SM FEW200
     FM240300 VRB05KT P6SM FEW010
     FM241200 VRB03KT P6SM SCT008
     FM241600 VRB04KT P6SM FEW010
     FM241900 29009KT P6SM SKC=



000
FTUS46 KSGX 231700
TAFCRQ
TAF
KCRQ 231732Z 2318/2418 VRB04KT P6SM FEW200
     FM232100 27009KT P6SM FEW200
     FM240000 VRB05KT P6SM FEW008
     FM241200 VRB03KT P6SM SCT006
     FM241600 VRB03KT P6SM FEW008=



000
FTUS46 KSGX 231700
TAFPSP
TAF
KPSP 231732Z 2318/2418 VRB05KT P6SM FEW200
     FM232200 32012G20KT P6SM FEW200
     FM240600 VRB05KT P6SM SKC=



000
FTUS46 KSGX 231700
TAFONT
TAF
KONT 231732Z 2318/2424 VRB05KT P6SM FEW200
     FM232000 26010G18KT P6SM FEW200
     FM240300 VRB05KT P6SM SKC
     FM242000 26010G18KT P6SM SKC=



000
FTUS46 KSGX 231400 AAA
TAFSAN
TAF AMD
KSAN 231433Z 2315/2418 VRB03KT P6SM FEW008
     FM231800 30011KT P6SM SKC
     FM240300 VRB05KT P6SM FEW010
     FM241200 VRB03KT P6SM BKN010
     FM241600 VRB04KT P6SM SCT010=



000
FTUS46 KSGX 231100
TAFPSP
TAF
KPSP 231120Z 2312/2412 VRB05KT P6SM FEW200
     FM232200 32012G20KT P6SM SKC
     FM240600 VRB05KT P6SM SKC=



000
FTUS46 KSGX 231100
TAFTRM
TAF
KTRM 231120Z 2312/2412 31009KT P6SM FEW200
     FM231500 VRB05KT P6SM SKC
     FM240200 32012KT P6SM SKC
     FM241000 VRB05KT P6SM SKC=



000
FTUS46 KSGX 231100
TAFONT
TAF
KONT 231120Z 2312/2418 VRB05KT P6SM FEW200
     FM232000 26010G18KT P6SM SKC
     FM240400 VRB05KT P6SM SKC=



000
FTUS46 KSGX 231100
TAFSAN
TAF
KSAN 231120Z 2312/2418 VRB03KT P6SM FEW012
      TEMPO 2313/2315 BKN012
     FM231800 30011KT P6SM SKC
     FM240400 VRB05KT P6SM FEW010
     FM241000 VRB03KT P6SM BKN010
     FM241600 VRB04KT P6SM SCT010=



000
FTUS46 KSGX 231100
TAFCRQ
TAF
KCRQ 231120Z 2312/2412 VRB03KT P6SM FEW010
     FM232100 27010KT P6SM SKC
     FM240200 VRB05KT P6SM FEW010
     FM241000 VRB03KT P6SM BKN007=



000
FTUS46 KSGX 231100
TAFSNA
TAF
KSNA 231120Z 2312/2412 VRB05KT P6SM FEW015
     FM231800 22009KT P6SM SKC
     FM240300 VRB03KT P6SM FEW012=



000
FTUS46 KSGX 230900 AAA
TAFCRQ
TAF AMD
KCRQ 230915Z 2309/2406 VRB03KT P6SM FEW010
      TEMPO 2312/2315 BKN010
     FM232100 27010KT P6SM SKC
     FM240200 VRB05KT P6SM FEW010=



000
FTUS46 KSGX 230900 AAA
TAFSNA
TAF AMD
KSNA 230914Z 2309/2406 VRB05KT P6SM FEW015
     FM231800 22009KT P6SM SKC
     FM240300 VRB05KT P6SM FEW012=



000
FTUS46 KSGX 230900 AAA
TAFSAN
TAF AMD
KSAN 230913Z 2309/2412 VRB03KT P6SM FEW012
      TEMPO 2312/2315 BKN012
     FM231800 30011KT P6SM FEW020
     FM240400 VRB05KT P6SM FEW010
     FM241000 VRB04KT P6SM BKN010=



000
FTUS46 KSGX 230500
TAFSAN
TAF
KSAN 230520Z 2306/2412 VRB05KT P6SM SCT015
      TEMPO 2309/2313 OVC010
     FM231300 VRB04KT P6SM SCT015
     FM231800 30011KT P6SM FEW020
     FM240400 VRB05KT P6SM FEW010
     FM241000 VRB06KT P6SM BKN010=



000
FTUS46 KSGX 230500
TAFONT
TAF
KONT 230520Z 2306/2412 VRB05KT P6SM FEW200
     FM232000 26010G18KT P6SM SKC
     FM240400 VRB05KT P6SM SKC=



000
FTUS46 KSGX 230500
TAFCRQ
TAF
KCRQ 230520Z 2306/2406 VRB05KT P6SM FEW010
      TEMPO 2309/2313 BKN007
     FM231300 VRB03KT P6SM SCT010
     FM232100 26010KT P6SM FEW010
     FM240100 VRB05KT P6SM FEW010=



000
FTUS46 KSGX 230500
TAFSNA
TAF
KSNA 230520Z 2306/2406 VRB05KT P6SM FEW015
      TEMPO 2309/2313 BKN010
     FM231800 22009KT P6SM FEW015=



000
FTUS46 KSGX 230500
TAFPSP
TAF
KPSP 230520Z 2306/2406 VRB05KT P6SM FEW200
     FM240000 32013G23KT P6SM FEW200
     FM240500 VRB05KT P6SM FEW200=



000
FTUS46 KSGX 230500
TAFTRM
TAF
KTRM 230520Z 2306/2406 33010KT P6SM FEW200
     FM230900 VRB05KT P6SM FEW200
     FM240400 33009KT P6SM FEW200=



000
FTUS46 KSGX 230300 AAA
TAFSAN
TAF AMD
KSAN 230308Z 2303/2406 VRB05KT P6SM SCT015
      TEMPO 2309/2313 OVC010
     FM231300 VRB04KT P6SM SCT015
     FM231800 30011KT P6SM FEW020
     FM240400 VRB05KT P6SM FEW010=



000
FTUS46 KSGX 222300
TAFTRM
TAF
KTRM 222327Z 2300/2324 14007KT P6SM SKC
     FM230300 33010KT P6SM FEW200
     FM230900 VRB05KT P6SM FEW200=



000
FTUS46 KSGX 222300
TAFSNA
TAF
KSNA 222327Z 2300/2324 24009KT P6SM FEW020
     FM230200 VRB05KT P6SM FEW015
     FM230900 VRB03KT P6SM BKN010
     FM231500 VRB03KT P6SM FEW015=



000
FTUS46 KSGX 222300
TAFPSP
TAF
KPSP 222327Z 2300/2324 32013G20KT P6SM SKC
     FM230600 VRB05KT P6SM FEW200=



000
FTUS46 KSGX 222300
TAFSAN
TAF
KSAN 222327Z 2300/2406 30011KT P6SM FEW015
     FM230300 VRB05KT P6SM SCT015
     FM230900 VRB05KT P6SM OVC010
     FM231500 VRB04KT P6SM SCT015
     FM231800 30011KT P6SM FEW020
     FM240400 VRB05KT P6SM FEW010=



000
FTUS46 KSGX 222300
TAFCRQ
TAF
KCRQ 222327Z 2300/2324 26009KT P6SM FEW015
     FM230100 VRB05KT P6SM FEW010
     FM230900 VRB03KT 6SM BR BKN007
     FM231600 VRB03KT P6SM SCT010
     FM232100 26010KT P6SM FEW010=



000
FTUS46 KSGX 222300
TAFONT
TAF
KONT 222327Z 2300/2406 26011G18KT P6SM FEW200
     FM230400 VRB05KT P6SM FEW200
     FM232000 26010G18KT P6SM SKC
     FM240400 VRB05KT P6SM SKC=



000
FTUS46 KSGX 222000 AAA
TAFSAN
TAF AMD
KSAN 222039Z 2221/2324 30011KT P6SM FEW015
     FM230300 VRB05KT P6SM SCT015
     FM230800 VRB05KT P6SM OVC010
     FM231600 VRB04KT P6SM SCT015
     FM231800 30011KT P6SM FEW020=



000
FTUS46 KSGX 221700
TAFONT
TAF
KONT 221734Z 2218/2324 VRB05KT P6SM FEW200
     FM222000 26011G18KT P6SM FEW200
     FM230400 VRB05KT P6SM FEW200
     FM232000 26010G18KT P6SM SKC=



000
FTUS46 KSGX 221700
TAFPSP
TAF
KPSP 221734Z 2218/2318 VRB05KT P6SM SKC
     FM222200 32013G20KT P6SM SKC
     FM230600 VRB05KT P6SM FEW200=



000
FTUS46 KSGX 221700
TAFCRQ
TAF
KCRQ 221734Z 2218/2318 26006KT P6SM FEW013
     FM222000 26009KT P6SM FEW015
     FM230100 VRB05KT P6SM FEW010
     FM230800 VRB03KT 6SM BR BKN007
     FM231600 VRB03KT P6SM SCT010=



000
FTUS46 KSGX 221700
TAFSNA
TAF
KSNA 221734Z 2218/2318 VRB04KT P6SM FEW012
     FM221900 24009KT P6SM FEW020
     FM230200 VRB05KT P6SM FEW015
     FM231200 VRB03KT P6SM BKN010
     FM231500 VRB03KT P6SM FEW015=



000
FTUS46 KSGX 221700
TAFTRM
TAF
KTRM 221734Z 2218/2318 14007KT P6SM SKC
     FM230200 33010KT P6SM FEW200=



000
FTUS46 KSGX 221700
TAFSAN
TAF
KSAN 221734Z 2218/2324 31011KT P6SM FEW020
     FM230300 VRB05KT P6SM SCT015
     FM230800 VRB05KT P6SM OVC010
     FM231600 VRB04KT P6SM SCT015
     FM231800 30011KT P6SM FEW020=



000
FTUS46 KSGX 221400 AAA
TAFSAN
TAF AMD
KSAN 221444Z 2215/2318 33005KT P6SM BKN015
     FM221600 33006KT P6SM SCT018
     FM221900 31011KT P6SM FEW020
     FM230200 VRB05KT P6SM SCT015
     FM230500 VRB05KT P6SM OVC011
     FM231630 VRB04KT P6SM SCT015=



000
FTUS46 KSGX 221300 AAA
TAFCRQ
TAF AMD
KCRQ 221354Z 2214/2312 VRB03KT P6SM FEW010
     FM221800 26009KT P6SM FEW015
     FM230100 VRB05KT P6SM FEW010
     FM230500 VRB03KT P6SM BKN007=



000
FTUS46 KSGX 221300 AAA
TAFSNA
TAF AMD
KSNA 221353Z 2214/2312 VRB04KT P6SM FEW012
     FM221900 24009KT P6SM FEW020
     FM230200 VRB05KT P6SM FEW015
     FM231000 VRB03KT P6SM BKN012=



000
FTUS46 KSGX 221100
TAFONT
TAF
KONT 221120Z 2212/2318 VRB05KT P6SM FEW200
     FM222000 25010G18KT P6SM SKC
     FM230400 VRB05KT P6SM FEW200=



000
FTUS46 KSGX 221100
TAFSAN
TAF
KSAN 221120Z 2212/2318 VRB04KT P6SM OVC012
     FM221700 30006KT P6SM SCT018
     FM221900 31011KT P6SM FEW020
     FM230500 VRB05KT P6SM OVC012
     FM231630 VRB04KT P6SM SCT015=



000
FTUS46 KSGX 221100
TAFPSP
TAF
KPSP 221120Z 2212/2312 VRB05KT P6SM SKC
     FM222200 32013KT P6SM SKC
     FM230400 VRB05KT P6SM FEW200=



000
FTUS46 KSGX 221100
TAFCRQ
TAF
KCRQ 221120Z 2212/2312 VRB03KT P6SM FEW010
      TEMPO 2212/2216 BKN008
     FM221800 26009KT P6SM FEW015
     FM230100 VRB05KT P6SM FEW010
     FM230500 VRB03KT P6SM BKN007=



000
FTUS46 KSGX 221100
TAFSNA
TAF
KSNA 221120Z 2212/2312 VRB05KT P6SM FEW015
      TEMPO 2213/2216 BKN012
     FM221900 23009KT P6SM FEW020
     FM230200 VRB05KT P6SM FEW015
     FM231000 VRB03KT P6SM BKN012=



000
FTUS46 KSGX 221100
TAFTRM
TAF
KTRM 221120Z 2212/2312 33008KT P6SM SKC
     FM221700 14008KT P6SM SKC
     FM230200 33010KT P6SM FEW200=



000
FTUS46 KSGX 221000 AAB
TAFSAN
TAF AMD
KSAN 221007Z 2210/2312 VRB04KT P6SM BKN014
     FM221700 30006KT P6SM SCT018
     FM221900 31011KT P6SM FEW020
     FM230500 VRB05KT P6SM BKN012=



000
FTUS46 KSGX 220800 AAA
TAFSNA
TAF AMD
KSNA 220826Z 2208/2306 VRB05KT P6SM SCT020
     FM221100 VRB03KT P6SM BKN016
     FM221700 23009KT P6SM FEW020
     FM230100 VRB05KT P6SM FEW015
     FM230400 VRB05KT P6SM BKN012=



000
FTUS46 KSGX 220600 AAB
TAFCRQ
TAF AMD
KCRQ 220632Z 2207/2306 VRB03KT P6SM FEW009
      TEMPO 2207/2210 BKN009
     FM221000 VRB03KT P6SM BKN010
     FM221700 26009KT P6SM FEW015
     FM230100 VRB05KT P6SM FEW015
     FM230400 VRB05KT P6SM BKN010=



000
FTUS46 KSGX 220600 AAA
TAFSAN
TAF AMD
KSAN 220631Z 2207/2312 33007KT P6SM SCT014
      TEMPO 2207/2209 BKN014
     FM220900 VRB05KT P6SM BKN014
     FM221700 30006KT P6SM SCT020
     FM221900 31011KT P6SM FEW020
     FM230400 VRB05KT P6SM BKN012=



000
FTUS46 KSGX 220500 AAA
TAFCRQ
TAF AMD
KCRQ 220538Z 2206/2306 VRB03KT P6SM FEW012
     FM220800 VRB03KT P6SM BKN012
     FM221700 26009KT P6SM FEW015
     FM230100 VRB05KT P6SM FEW015
     FM230400 VRB05KT P6SM BKN010=



000
FTUS46 KSGX 220500
TAFPSP
TAF
KPSP 220520Z 2206/2306 VRB05KT P6SM FEW200
     FM222300 33011G21KT P6SM FEW200
     FM230400 VRB05KT P6SM FEW200=



000
FTUS46 KSGX 220500
TAFONT
TAF
KONT 220520Z 2206/2312 VRB05KT P6SM FEW200
     FM222100 25011G21KT P6SM FEW200
     FM230400 VRB05KT P6SM FEW200=



000
FTUS46 KSGX 220500
TAFCRQ
TAF
KCRQ 220520Z 2206/2306 VRB03KT P6SM OVC014
     FM221700 26009KT P6SM FEW015
     FM230100 VRB05KT P6SM FEW015
     FM230400 VRB05KT P6SM BKN010=



000
FTUS46 KSGX 220500
TAFTRM
TAF
KTRM 220520Z 2206/2306 33011KT P6SM FEW200
     FM220700 VRB05KT P6SM FEW200
     FM230500 33010KT P6SM FEW200=



000
FTUS46 KSGX 220500
TAFSNA
TAF
KSNA 220520Z 2206/2306 VRB05KT P6SM SCT019
     FM220800 VRB03KT P6SM BKN016
     FM221700 23009KT P6SM FEW020
     FM230100 VRB05KT P6SM FEW015
     FM230400 VRB05KT P6SM BKN012=



000
FTUS46 KSGX 220500
TAFSAN
TAF
KSAN 220520Z 2206/2312 VRB04KT P6SM OVC016
     FM221700 30006KT P6SM SCT020
     FM221900 31011KT P6SM FEW020
     FM230400 VRB05KT P6SM BKN012=



000
FTUS46 KSGX 220200 AAA
TAFSAN
TAF AMD
KSAN 220255Z 2203/2306 VRB06KT P6SM SCT019
     FM220400 VRB04KT P6SM OVC016
     FM221700 30006KT P6SM SCT020
     FM221900 31011KT P6SM FEW020
     FM230100 VRB05KT P6SM SCT015=



000
FTUS46 KSGX 212300
TAFPSP
TAF
KPSP 212332Z 2200/2224 33012G20KT P6SM FEW200
     FM220500 VRB05KT P6SM FEW200
     FM222300 32011G21KT P6SM FEW200=



000
FTUS46 KSGX 212300
TAFSAN
TAF
KSAN 212332Z 2200/2306 30014KT P6SM FEW200
     FM220300 30008KT P6SM SCT019
     FM220500 VRB04KT P6SM OVC016
     FM221700 30006KT P6SM SCT020
     FM221900 31011KT P6SM FEW020
     FM230100 VRB05KT P6SM SCT015=



000
FTUS46 KSGX 212300
TAFSNA
TAF
KSNA 212332Z 2200/2224 23009KT P6SM FEW020
     FM220300 VRB05KT P6SM SCT019
     FM220800 VRB03KT P6SM BKN016
     FM221700 23009KT P6SM FEW020=



000
FTUS46 KSGX 212300
TAFCRQ
TAF
KCRQ 212332Z 2200/2224 25008KT P6SM FEW020 FEW200
     FM220100 VRB05KT P6SM SCT017
     FM220500 VRB03KT P6SM OVC014
     FM221700 26009KT P6SM FEW019=



000
FTUS46 KSGX 212300
TAFTRM
TAF
KTRM 212332Z 2200/2224 VRB05KT P6SM FEW200
     FM220400 33011KT P6SM FEW200
     FM220900 VRB05KT P6SM FEW200=



000
FTUS46 KSGX 212300
TAFONT
TAF
KONT 212332Z 2200/2306 25010G18KT P6SM FEW200
     FM220400 VRB05KT P6SM FEW200
     FM222100 25011G21KT P6SM FEW200
     FM230400 VRB05KT P6SM FEW200=



000
FTUS46 KSGX 212000 AAA
TAFSAN
TAF AMD
KSAN 212043Z 2121/2224 30014KT P6SM FEW200
     FM220300 30008KT P6SM SCT019
     FM220600 VRB04KT P6SM OVC016
     FM221700 30006KT P6SM SCT020
     FM221930 31011KT P6SM FEW020=



000
FTUS46 KSGX 211700
TAFTRM
TAF
KTRM 211737Z 2118/2218 14008KT P6SM FEW200
     FM220400 33011KT P6SM FEW200
     FM220900 VRB05KT P6SM FEW200=



000
FTUS46 KSGX 211700
TAFSAN
TAF
KSAN 211737Z 2118/2224 29011KT P6SM FEW020 FEW200
     FM220300 30006KT P6SM SCT019
     FM220600 VRB04KT P6SM OVC016
     FM221700 30006KT P6SM SCT020
     FM221930 31011KT P6SM FEW020=



000
FTUS46 KSGX 211700
TAFCRQ
TAF
KCRQ 211737Z 2118/2218 25008KT P6SM FEW020 FEW200
     FM220100 VRB05KT P6SM SCT017
     FM220500 VRB03KT P6SM OVC014
     FM221700 26009KT P6SM FEW019=



000
FTUS46 KSGX 211700
TAFSNA
TAF
KSNA 211737Z 2118/2218 VRB05KT P6SM SCT020
     FM212000 23009KT P6SM FEW020
     FM220300 VRB05KT P6SM SCT019
     FM220800 VRB03KT P6SM BKN016
     FM221700 23009KT P6SM FEW020=



000
FTUS46 KSGX 211700
TAFONT
TAF
KONT 211737Z 2118/2224 25007KT P6SM FEW200
     FM212100 25010G18KT P6SM FEW200
     FM220400 VRB05KT P6SM FEW200
     FM222100 25010G18KT P6SM FEW200=



000
FTUS46 KSGX 211700
TAFPSP
TAF
KPSP 211737Z 2118/2218 VRB05KT P6SM FEW200
     FM212200 33012G20KT P6SM FEW200
     FM220600 VRB05KT P6SM FEW200=



000
FTUS46 KSGX 211600 CCA
TAFSNA
TAF COR
KSNA 211651Z 2117/2212 VRB05KT P6SM BKN020
     FM211900 23009KT P6SM SCT020 SCT200
     FM220300 VRB05KT P6SM SCT020
     FM220800 VRB03KT P6SM BKN017=



000
FTUS46 KSGX 211600 AAB
TAFSAN
TAF AMD
KSAN 211637Z 2117/2218 VRB05KT P6SM BKN020
     FM211900 29011KT P6SM FEW020 SCT200
     FM220300 30007KT P6SM SCT020
     FM220500 VRB04KT P6SM OVC017
     FM221700 28007KT P6SM SCT020=



000
FTUS46 KSGX 211600 AAA
TAFCRQ
TAF AMD
KCRQ 211634Z 2117/2212 VRB03KT P6SM BKN020
     FM211800 25008KT P6SM FEW020 SCT200
     FM220100 VRB05KT P6SM SCT017
     FM220500 VRB03KT P6SM OVC015=



000
FTUS46 KSGX 211600 AAA
TAFSNA
TAF AMD
KSNA 211632Z 2117/2212 VRB05KT P6SM BKN020
     FM211900 VRB09KT P6SM SCT020 SCT200
     FM220300 VRB05KT P6SM SCT020
     FM220800 VRB03KT P6SM BKN017=



000
FTUS46 KSGX 211400 AAA
TAFSAN
TAF AMD
KSAN 211433Z 2115/2218 VRB03KT P6SM OVC017
     FM211700 VRB05KT P6SM SCT020 SCT200
     FM211900 29011KT P6SM FEW020 SCT200
     FM220300 30007KT P6SM SCT020
     FM220500 VRB04KT P6SM OVC017
     FM221700 28007KT P6SM SCT020=



000
FTUS46 KSGX 211300 AAA
TAFONT
TAF AMD
KONT 211401Z 2114/2218 VRB04KT P6SM FEW015 FEW200
     FM212100 25010G18KT P6SM SCT200
     FM220400 VRB05KT P6SM FEW200=



000
FTUS46 KSGX 211100
TAFCRQ
TAF
KCRQ 211121Z 2112/2212 VRB03KT P6SM SCT017
      TEMPO 2112/2116 BKN017
     FM211900 25008KT P6SM FEW020 SCT200
     FM220100 VRB05KT P6SM SCT017
     FM220300 VRB03KT P6SM OVC015=



000
FTUS46 KSGX 211100
TAFONT
TAF
KONT 211121Z 2112/2218 VRB04KT P6SM FEW015 FEW250
      TEMPO 2113/2116 BKN011
     FM212100 25010G18KT P6SM SCT200
     FM220500 VRB05KT P6SM FEW200=



000
FTUS46 KSGX 211100
TAFSAN
TAF
KSAN 211121Z 2112/2218 VRB03KT P6SM OVC017
     FM211700 VRB05KT P6SM SCT020 SCT200
     FM211900 29011KT P6SM FEW020 SCT200
     FM220200 VRB05KT P6SM SCT020
     FM220500 VRB04KT P6SM OVC017
     FM221700 28007KT P6SM SCT020=



000
FTUS46 KSGX 211100
TAFSNA
TAF
KSNA 211121Z 2112/2212 VRB03KT P6SM SCT015
     FM211300 VRB03KT P6SM BKN015
     FM211630 VRB03KT P6SM SCT020 SCT200
     FM212000 26009KT P6SM FEW020 SCT200
     FM220300 VRB05KT P6SM SCT020
     FM220800 VRB03KT P6SM BKN017=



000
FTUS46 KSGX 211100
TAFTRM
TAF
KTRM 211121Z 2112/2212 VRB05KT P6SM FEW200
     FM211900 14008KT P6SM SCT200
     FM220400 33011KT P6SM FEW200=



000
FTUS46 KSGX 211100
TAFPSP
TAF
KPSP 211121Z 2112/2212 VRB05KT P6SM FEW200
     FM212200 33012G20KT P6SM SCT200
     FM220600 VRB05KT P6SM FEW200=



000
FTUS46 KSGX 211000 AAA
TAFONT
TAF AMD
KONT 211002Z 2110/2212 VRB04KT P6SM FEW015 SCT150
      TEMPO 2113/2116 BKN011
     FM212000 25011G21KT P6SM SCT200
     FM220400 VRB05KT P6SM FEW200=



000
FTUS46 KSGX 211000 AAB
TAFSNA
TAF AMD
KSNA 211000Z 2110/2206 VRB03KT P6SM SCT015
     FM211130 VRB05KT P6SM OVC015
     FM211700 VRB03KT P6SM SCT020
     FM212000 23009KT P6SM SCT015
     FM220500 VRB05KT P6SM BKN012=



000
FTUS46 KSGX 210900 AAA
TAFSAN
TAF AMD
KSAN 210905Z 2109/2212 VRB05KT P6SM OVC017
     FM211700 28009KT P6SM SCT020
     FM220100 VRB05KT P6SM SCT015
     FM220400 VRB05KT P6SM OVC015=



000
FTUS46 KSGX 210600 AAA
TAFSNA
TAF AMD
KSNA 210617Z 2106/2206 VRB03KT P6SM SCT015
     FM211000 VRB05KT P6SM OVC015
     FM211700 VRB03KT P6SM SCT020
     FM212000 23009KT P6SM SCT015
     FM220500 VRB05KT P6SM BKN012=



000
FTUS46 KSGX 210500
TAFSAN
TAF
KSAN 210520Z 2106/2212 VRB05KT P6SM OVC018
     FM211700 28009KT P6SM SCT020
     FM220100 VRB05KT P6SM SCT015
     FM220400 VRB05KT P6SM OVC015=



000
FTUS46 KSGX 210500
TAFCRQ
TAF
KCRQ 210520Z 2106/2206 VRB03KT P6SM OVC015
     FM211700 VRB03KT P6SM SCT015
     FM211900 26010KT P6SM SCT015
     FM220100 VRB05KT P6SM SCT012
     FM220300 VRB05KT P6SM BKN012=



000
FTUS46 KSGX 210500
TAFONT
TAF
KONT 210520Z 2106/2212 VRB06KT P6SM SCT150
     FM211200 VRB04KT 6SM HZ BKN012
     FM211600 VRB04KT P6SM FEW015
     FM212000 25011G21KT P6SM FEW015
     FM220400 VRB05KT P6SM FEW015=



000
FTUS46 KSGX 210500
TAFPSP
TAF
KPSP 210520Z 2106/2206 33013KT P6SM FEW250
     FM210700 VRB06KT P6SM SKC
     FM212200 33010KT P6SM SKC
     FM220500 VRB05KT P6SM SKC=



000
FTUS46 KSGX 210500
TAFTRM
TAF
KTRM 210520Z 2106/2206 33011KT P6SM SCT150
     FM211000 VRB05KT P6SM SCT150
     FM220400 33010KT P6SM SCT150=



000
FTUS46 KSGX 210500
TAFSNA
TAF
KSNA 210520Z 2106/2206 VRB03KT P6SM SCT020
     FM210700 VRB05KT P6SM OVC020
     FM211700 VRB03KT P6SM SCT020
     FM212000 23009KT P6SM SCT015
     FM220500 VRB05KT P6SM BKN015=



000
FTUS46 KSGX 210300 AAA
TAFSAN
TAF AMD
KSAN 210301Z 2103/2206 29006KT P6SM SCT020
     FM210330 VRB05KT P6SM OVC020
     FM211900 28009KT P6SM SCT020
     FM220400 VRB05KT P6SM OVC018=



000
FTUS46 KSGX 202300
TAFPSP
TAF
KPSP 202334Z 2100/2124 33013KT P6SM FEW250
      TEMPO 2101/2105 32015G25KT
     FM210700 VRB06KT P6SM SKC
     FM212200 33010KT P6SM SKC=



000
FTUS46 KSGX 202300
TAFTRM
TAF
KTRM 202334Z 2100/2124 VRB05KT P6SM SCT150
     FM210400 33012KT P6SM SCT150
     FM211000 14007KT P6SM SCT150=



000
FTUS46 KSGX 202300
TAFSAN
TAF
KSAN 202334Z 2100/2206 28009KT P6SM SCT020
     FM210400 29006KT P6SM OVC020
     FM211900 28009KT P6SM SCT020
     FM220400 VRB05KT P6SM OVC018=



000
FTUS46 KSGX 202300
TAFONT
TAF
KONT 202334Z 2100/2206 25011KT P6SM SCT150
     FM210600 VRB06KT P6SM SCT150
     FM211100 VRB04KT 6SM HZ BKN012
     FM211700 VRB04KT P6SM FEW015
     FM212000 25011G22KT P6SM FEW015=



000
FTUS46 KSGX 202300
TAFSNA
TAF
KSNA 202334Z 2100/2124 22009KT P6SM SKC
     FM210300 VRB03KT P6SM SCT020
     FM210700 VRB05KT P6SM OVC020
     FM211700 VRB03KT P6SM SCT020
     FM212000 23009KT P6SM SCT015=



000
FTUS46 KSGX 202300
TAFCRQ
TAF
KCRQ 202334Z 2100/2124 25009KT P6SM SCT025
     FM210400 VRB03KT P6SM OVC015
     FM211700 VRB03KT P6SM SCT015
     FM211900 VRB05KT P6SM SCT015=



    US Dept of Commerce
    National Oceanic and Atmospheric Administration
    National Weather Service
    1325 East West Highway
    Silver Spring, MD 20910
    Page Author: NWS Internet Services Team
Disclaimer
Information Quality
Credits
Glossary
Privacy Policy
Freedom of Information Act (FOIA)
About Us
Career Opportunities